createdAt,value
2018-11-06T00:01:39.875Z,70.50
2018-11-06T00:04:08.866Z,62.47
2018-11-06T00:06:37.247Z,67.03
2018-11-06T00:09:07.735Z,54.10
2018-11-06T00:11:36.091Z,59.60
2018-11-06T00:14:04.859Z,60.67
2018-11-06T00:16:33.239Z,61.50
2018-11-06T00:19:01.639Z,69.93
2018-11-06T00:21:30.014Z,48.80
2018-11-06T00:23:58.412Z,63.03
2018-11-06T00:26:26.791Z,54.10
2018-11-06T00:28:55.200Z,53.33
2018-11-06T00:31:23.578Z,53.60
2018-11-06T00:33:51.975Z,51.83
2018-11-06T00:36:20.519Z,55.60
2018-11-06T00:38:48.919Z,50.63
2018-11-06T00:41:17.319Z,48.27
2018-11-06T00:43:45.714Z,56.63
2018-11-06T00:46:14.086Z,48.83
2018-11-06T00:48:42.482Z,50.57
2018-11-06T00:51:10.863Z,61.67
2018-11-06T00:53:39.255Z,53.07
2018-11-06T00:56:07.627Z,55.10
2018-11-06T00:58:36.023Z,65.33
2018-11-06T01:01:04.435Z,52.33
2018-11-06T01:03:38.199Z,42.67
2018-11-06T01:06:06.580Z,57.53
2018-11-06T01:08:34.979Z,60.07
2018-11-06T01:11:03.363Z,50.87
2018-11-06T01:13:31.767Z,67.10
2018-11-06T01:16:00.142Z,56.17
2018-11-06T01:18:28.563Z,59.70
2018-11-06T01:20:56.931Z,51.77
2018-11-06T01:23:25.340Z,60.67
2018-11-06T01:25:53.747Z,62.03
2018-11-06T01:28:22.122Z,53.53
2018-11-06T01:30:50.535Z,48.90
2018-11-06T01:33:18.915Z,52.10
2018-11-06T01:35:47.316Z,55.80
2018-11-06T01:38:15.687Z,57.77
2018-11-06T01:40:44.106Z,51.40
2018-11-06T01:43:12.483Z,52.70
2018-11-06T01:45:40.881Z,54.53
2018-11-06T01:48:09.254Z,51.57
2018-11-06T01:50:37.655Z,58.10
2018-11-06T01:53:06.071Z,60.27
2018-11-06T01:55:34.475Z,51.13
2018-11-06T01:58:02.851Z,53.87
2018-11-06T02:00:31.251Z,58.50
2018-11-06T02:02:59.632Z,49.23
2018-11-06T02:05:28.034Z,50.57
2018-11-06T02:07:56.415Z,58.00
2018-11-06T02:10:24.818Z,51.70
2018-11-06T02:12:53.196Z,52.77
2018-11-06T02:15:21.604Z,60.37
2018-11-06T02:17:49.983Z,50.97
2018-11-06T02:20:18.386Z,45.57
2018-11-06T02:22:47.190Z,45.37
2018-11-06T02:25:15.798Z,59.30
2018-11-06T02:27:44.183Z,48.53
2018-11-06T02:30:14.208Z,58.07
2018-11-06T02:32:43.373Z,52.17
2018-11-06T02:35:11.791Z,53.60
2018-11-06T02:37:40.163Z,49.50
2018-11-06T02:40:10.274Z,63.87
2018-11-06T02:42:38.678Z,48.63
2018-11-06T02:45:07.651Z,56.03
2018-11-06T02:47:36.107Z,47.93
2018-11-06T02:50:04.652Z,60.33
2018-11-06T02:52:33.038Z,42.80
2018-11-06T02:55:01.441Z,45.03
2018-11-06T02:57:29.814Z,49.30
2018-11-06T02:59:58.215Z,50.83
2018-11-06T03:02:26.602Z,46.07
2018-11-06T03:04:55.004Z,44.93
2018-11-06T03:07:23.391Z,46.07
2018-11-06T03:09:51.806Z,46.30
2018-11-06T03:12:20.174Z,48.47
2018-11-06T03:14:48.600Z,49.80
2018-11-06T03:17:16.978Z,60.27
2018-11-06T03:19:45.347Z,51.40
2018-11-06T03:22:13.742Z,46.10
2018-11-06T03:24:42.123Z,49.93
2018-11-06T03:27:10.611Z,48.60
2018-11-06T03:29:38.925Z,43.20
2018-11-06T03:32:07.338Z,51.60
2018-11-06T03:34:35.723Z,41.43
2018-11-06T03:37:04.136Z,46.23
2018-11-06T03:39:32.531Z,46.47
2018-11-06T03:42:00.966Z,37.77
2018-11-06T03:44:29.338Z,44.77
2018-11-06T03:46:57.734Z,40.63
2018-11-06T03:49:26.112Z,44.83
2018-11-06T03:51:54.526Z,39.83
2018-11-06T03:54:22.916Z,37.17
2018-11-06T03:56:51.318Z,44.77
2018-11-06T03:59:20.038Z,44.17
2018-11-06T04:01:48.442Z,40.10
2018-11-06T04:04:16.810Z,39.67
2018-11-06T04:06:45.213Z,40.20
2018-11-06T04:09:13.967Z,41.33
2018-11-06T04:11:42.674Z,54.03
2018-11-06T04:14:11.546Z,39.27
2018-11-06T04:16:40.354Z,44.97
2018-11-06T04:19:09.228Z,51.07
2018-11-06T04:21:38.763Z,40.60
2018-11-06T04:24:10.809Z,42.57
2018-11-06T04:26:39.610Z,44.17
2018-11-06T04:29:08.791Z,44.70
2018-11-06T04:31:37.808Z,53.20
2018-11-06T04:34:06.472Z,48.17
2018-11-06T04:36:34.874Z,45.70
2018-11-06T04:39:03.643Z,59.23
2018-11-06T04:41:32.061Z,43.60
2018-11-06T04:44:00.443Z,47.73
2018-11-06T04:46:28.851Z,43.60
2018-11-06T04:48:57.222Z,37.57
2018-11-06T04:51:25.622Z,41.07
2018-11-06T04:53:58.115Z,45.63
2018-11-06T04:56:26.823Z,44.40
2018-11-06T04:58:55.221Z,43.33
2018-11-06T05:01:23.999Z,49.10
2018-11-06T05:03:52.369Z,52.67
2018-11-06T05:06:20.770Z,48.77
2018-11-06T05:08:49.142Z,43.50
2018-11-06T05:11:17.542Z,48.47
2018-11-06T05:13:45.933Z,43.43
2018-11-06T05:16:14.323Z,45.03
2018-11-06T05:18:42.732Z,44.53
2018-11-06T05:21:11.106Z,43.40
2018-11-06T05:23:39.511Z,48.23
2018-11-06T05:26:07.896Z,39.60
2018-11-06T05:28:36.337Z,53.03
2018-11-06T05:31:04.870Z,52.07
2018-11-06T05:33:33.267Z,48.40
2018-11-06T05:36:01.637Z,48.33
2018-11-06T05:38:30.030Z,51.40
2018-11-06T05:41:02.645Z,51.97
2018-11-06T05:43:31.038Z,45.03
2018-11-06T05:45:59.497Z,47.97
2018-11-06T05:48:27.898Z,44.90
2018-11-06T05:50:56.303Z,56.13
2018-11-06T05:53:24.689Z,40.20
2018-11-06T05:55:53.066Z,45.23
2018-11-06T05:58:21.464Z,39.17
2018-11-06T06:00:49.835Z,47.20
2018-11-06T06:03:18.243Z,47.10
2018-11-06T06:05:46.623Z,43.53
2018-11-06T06:08:15.024Z,47.00
2018-11-06T06:10:43.395Z,48.27
2018-11-06T06:13:11.790Z,56.33
2018-11-06T06:15:40.170Z,46.63
2018-11-06T06:18:08.570Z,62.33
2018-11-06T06:20:36.946Z,49.30
2018-11-06T06:23:05.874Z,57.53
2018-11-06T06:25:34.288Z,63.90
2018-11-06T06:28:02.678Z,60.13
2018-11-06T06:30:31.062Z,62.90
2018-11-06T06:32:59.467Z,60.57
2018-11-06T06:35:27.877Z,64.33
2018-11-06T06:37:56.275Z,55.53
2018-11-06T06:40:24.654Z,48.50
2018-11-06T06:42:53.068Z,50.13
2018-11-06T06:45:21.442Z,46.57
2018-11-06T06:47:49.838Z,50.50
2018-11-06T06:50:19.325Z,50.17
2018-11-06T06:52:48.133Z,44.80
2018-11-06T06:55:17.158Z,48.13
2018-11-06T06:57:46.437Z,57.83
2018-11-06T07:00:16.422Z,55.13
2018-11-06T07:02:44.843Z,50.47
2018-11-06T07:05:14.450Z,46.03
2018-11-06T07:07:43.519Z,54.60
2018-11-06T07:10:13.659Z,46.33
2018-11-06T07:12:43.192Z,54.97
2018-11-06T07:15:16.888Z,48.47
2018-11-06T07:17:46.234Z,54.63
2018-11-06T07:20:19.018Z,54.50
2018-11-06T07:22:47.410Z,47.40
2018-11-06T07:25:16.013Z,52.43
2018-11-06T07:27:45.607Z,58.73
2018-11-06T07:30:15.801Z,58.93
2018-11-06T07:32:46.249Z,55.83
2018-11-06T07:35:15.420Z,54.10
2018-11-06T07:37:44.147Z,51.87
2018-11-06T07:40:13.770Z,54.93
2018-11-06T07:42:42.539Z,46.53
2018-11-06T07:45:14.109Z,50.47
2018-11-06T07:47:42.677Z,57.10
2018-11-06T07:50:11.816Z,68.50
2018-11-06T07:52:40.454Z,59.50
2018-11-06T07:55:11.148Z,57.10
2018-11-06T07:57:39.523Z,69.10
2018-11-06T08:00:13.765Z,55.17
2018-11-06T08:02:42.316Z,68.57
2018-11-06T08:05:10.947Z,53.90
2018-11-06T08:07:39.319Z,53.17
2018-11-06T08:10:08.421Z,60.10
2018-11-06T08:12:36.790Z,53.87
2018-11-06T08:15:05.639Z,56.27
2018-11-06T08:17:33.973Z,66.80
2018-11-06T08:20:02.452Z,64.50
2018-11-06T08:22:30.828Z,59.63
2018-11-06T08:24:59.226Z,54.90
2018-11-06T08:27:27.613Z,53.63
2018-11-06T08:29:56.041Z,63.00
2018-11-06T08:32:24.725Z,56.60
2018-11-06T08:34:52.838Z,58.10
2018-11-06T08:37:21.213Z,57.80
2018-11-06T08:39:49.610Z,52.07
2018-11-06T08:42:18.048Z,58.50
2018-11-06T08:44:46.443Z,58.10
2018-11-06T08:47:14.822Z,65.73
2018-11-06T08:49:43.217Z,55.20
2018-11-06T08:52:11.598Z,63.33
2018-11-06T08:54:40.091Z,50.30
2018-11-06T08:57:08.406Z,58.00
2018-11-06T08:59:36.810Z,51.07
2018-11-06T09:02:05.497Z,53.17
2018-11-06T09:04:33.890Z,61.70
2018-11-06T09:07:02.270Z,58.10
2018-11-06T09:09:30.671Z,51.60
2018-11-06T09:11:59.048Z,53.13
2018-11-06T09:14:27.460Z,58.30
2018-11-06T09:16:55.881Z,55.93
2018-11-06T09:19:24.294Z,61.30
2018-11-06T09:21:52.671Z,51.67
2018-11-06T09:24:21.042Z,55.13
2018-11-06T09:26:49.454Z,55.03
2018-11-06T09:29:17.830Z,56.43
2018-11-06T09:31:46.225Z,51.10
2018-11-06T09:34:14.598Z,49.13
2018-11-06T09:36:42.996Z,53.63
2018-11-06T09:39:12.051Z,53.23
2018-11-06T09:41:40.867Z,54.53
2018-11-06T09:44:09.257Z,54.83
2018-11-06T09:46:38.239Z,55.77
2018-11-06T09:49:07.003Z,64.73
2018-11-06T09:51:35.438Z,53.23
2018-11-06T09:54:03.826Z,52.90
2018-11-06T09:56:32.238Z,59.87
2018-11-06T09:59:00.614Z,57.90
2018-11-06T10:01:29.022Z,50.63
2018-11-06T10:03:57.398Z,51.90
2018-11-06T10:06:25.890Z,60.23
2018-11-06T10:08:54.230Z,55.33
2018-11-06T10:11:22.633Z,50.87
2018-11-06T10:13:51.019Z,53.40
2018-11-06T10:16:19.418Z,63.40
2018-11-06T10:18:47.790Z,58.10
2018-11-06T10:21:16.229Z,45.63
2018-11-06T10:23:44.731Z,66.40
2018-11-06T10:26:13.129Z,53.23
2018-11-06T10:28:41.510Z,55.00
2018-11-06T10:31:09.916Z,48.17
2018-11-06T10:33:38.291Z,57.30
2018-11-06T10:36:06.707Z,57.07
2018-11-06T10:38:35.089Z,51.27
2018-11-06T10:41:03.515Z,48.73
2018-11-06T10:43:31.886Z,49.80
2018-11-06T10:46:00.306Z,50.90
2018-11-06T10:48:28.700Z,55.67
2018-11-06T10:50:57.078Z,54.53
2018-11-06T10:53:25.483Z,57.37
2018-11-06T10:55:53.870Z,46.70
2018-11-06T10:58:22.263Z,49.50
2018-11-06T11:00:55.904Z,46.47
2018-11-06T11:03:28.553Z,48.87
2018-11-06T11:05:57.107Z,42.97
2018-11-06T11:08:25.514Z,44.77
2018-11-06T11:10:53.898Z,42.23
2018-11-06T11:13:22.328Z,46.67
2018-11-06T11:15:50.707Z,52.47
2018-11-06T11:18:19.106Z,48.30
2018-11-06T11:20:47.482Z,49.00
2018-11-06T11:23:15.883Z,46.50
2018-11-06T11:25:44.283Z,45.77
2018-11-06T11:28:12.699Z,44.20
2018-11-06T11:30:41.083Z,51.30
2018-11-06T11:33:09.488Z,43.20
2018-11-06T11:35:37.866Z,44.97
2018-11-06T11:38:06.273Z,45.10
2018-11-06T11:40:34.654Z,45.87
2018-11-06T11:43:03.082Z,38.43
2018-11-06T11:45:31.462Z,47.63
2018-11-06T11:47:59.861Z,41.57
2018-11-06T11:50:28.257Z,46.63
2018-11-06T11:52:56.654Z,42.80
2018-11-06T11:55:25.038Z,49.23
2018-11-06T11:57:53.448Z,56.80
2018-11-06T12:00:22.078Z,51.83
2018-11-06T12:02:50.497Z,53.07
2018-11-06T12:05:18.881Z,47.63
2018-11-06T12:07:47.263Z,45.53
2018-11-06T12:10:15.662Z,46.30
2018-11-06T12:12:44.038Z,42.53
2018-11-06T12:15:16.873Z,45.50
2018-11-06T12:17:46.249Z,47.10
2018-11-06T12:20:15.078Z,44.97
2018-11-06T12:22:43.459Z,42.63
2018-11-06T12:25:12.615Z,42.27
2018-11-06T12:27:40.850Z,44.17
2018-11-06T12:30:11.362Z,49.30
2018-11-06T12:32:40.301Z,50.60
2018-11-06T12:35:09.557Z,44.00
2018-11-06T12:37:38.211Z,36.77
2018-11-06T12:40:07.542Z,50.33
2018-11-06T12:42:36.206Z,43.97
2018-11-06T12:45:04.950Z,39.70
2018-11-06T12:47:33.331Z,49.53
2018-11-06T12:50:01.743Z,39.40
2018-11-06T12:52:30.159Z,53.67
2018-11-06T12:54:58.562Z,40.90
2018-11-06T12:57:26.947Z,49.20
2018-11-06T12:59:55.347Z,48.20
2018-11-06T13:02:23.737Z,37.60
2018-11-06T13:04:52.137Z,48.27
2018-11-06T13:07:20.523Z,42.83
2018-11-06T13:09:48.967Z,35.30
2018-11-06T13:12:17.347Z,46.63
2018-11-06T13:14:45.754Z,38.47
2018-11-06T13:17:14.990Z,42.70
2018-11-06T13:19:43.322Z,43.47
2018-11-06T13:22:11.738Z,45.83
2018-11-06T13:24:40.166Z,38.93
2018-11-06T13:27:08.555Z,47.80
2018-11-06T13:29:36.966Z,49.50
2018-11-06T13:32:05.583Z,45.40
2018-11-06T13:34:33.962Z,36.30
2018-11-06T13:37:02.363Z,42.60
2018-11-06T13:39:30.750Z,38.87
2018-11-06T13:41:59.192Z,38.00
2018-11-06T13:44:27.999Z,41.97
2018-11-06T13:46:56.117Z,53.63
2018-11-06T13:49:24.499Z,46.30
2018-11-06T13:51:52.968Z,53.10
2018-11-06T13:54:21.352Z,38.30
2018-11-06T13:56:49.753Z,39.87
2018-11-06T13:59:18.133Z,54.63
2018-11-06T14:01:46.530Z,41.77
2018-11-06T14:04:14.939Z,44.87
2018-11-06T14:06:43.338Z,45.47
2018-11-06T14:09:12.060Z,44.80
2018-11-06T14:11:40.763Z,37.13
2018-11-06T14:14:09.423Z,45.27
2018-11-06T14:16:38.030Z,45.10
2018-11-06T14:19:06.622Z,39.70
2018-11-06T14:21:35.203Z,41.23
2018-11-06T14:24:03.774Z,43.50
2018-11-06T14:26:32.228Z,51.87
2018-11-06T14:29:00.607Z,46.00
2018-11-06T14:31:29.230Z,41.13
2018-11-06T14:33:57.610Z,50.90
2018-11-06T14:36:26.053Z,49.20
2018-11-06T14:38:54.438Z,43.80
2018-11-06T14:41:22.854Z,42.70
2018-11-06T14:43:51.254Z,54.30
2018-11-06T14:46:19.655Z,48.40
2018-11-06T14:48:48.253Z,43.10
2018-11-06T14:51:16.465Z,45.53
2018-11-06T14:53:44.917Z,53.17
2018-11-06T14:56:13.296Z,46.20
2018-11-06T14:58:41.695Z,48.50
2018-11-06T15:01:10.082Z,46.93
2018-11-06T15:03:38.487Z,45.13
2018-11-06T15:06:07.140Z,43.53
2018-11-06T15:08:35.546Z,55.03
2018-11-06T15:11:03.930Z,55.27
2018-11-06T15:13:32.350Z,50.27
2018-11-06T15:16:00.736Z,47.63
2018-11-06T15:18:29.223Z,49.20
2018-11-06T15:20:57.635Z,43.67
2018-11-06T15:23:26.035Z,42.33
2018-11-06T15:25:54.426Z,46.53
2018-11-06T15:28:22.862Z,49.40
2018-11-06T15:30:51.225Z,44.43
2018-11-06T15:33:19.642Z,48.33
2018-11-06T15:35:48.025Z,48.97
2018-11-06T15:38:16.455Z,55.20
2018-11-06T15:40:44.897Z,52.53
2018-11-06T15:43:13.286Z,48.93
2018-11-06T15:45:41.670Z,52.07
2018-11-06T15:48:10.076Z,51.93
2018-11-06T15:50:38.455Z,62.07
2018-11-06T15:53:06.914Z,51.20
2018-11-06T15:55:35.294Z,49.30
2018-11-06T15:58:03.679Z,51.63
2018-11-06T16:00:32.094Z,60.57
2018-11-06T16:03:00.495Z,52.13
2018-11-06T16:05:28.898Z,45.53
2018-11-06T16:07:57.283Z,50.33
2018-11-06T16:10:25.696Z,55.13
2018-11-06T16:12:54.077Z,55.87
2018-11-06T16:15:22.585Z,70.77
2018-11-06T16:17:50.925Z,51.90
2018-11-06T16:20:20.496Z,52.37
2018-11-06T16:22:48.917Z,53.67
2018-11-06T16:25:18.279Z,57.70
2018-11-06T16:27:47.043Z,46.60
2018-11-06T16:30:17.705Z,60.30
2018-11-06T16:32:46.960Z,57.40
2018-11-06T16:35:16.602Z,52.27
2018-11-06T16:37:45.474Z,54.03
2018-11-06T16:40:14.495Z,54.73
2018-11-06T16:42:43.765Z,51.83
2018-11-06T16:45:14.462Z,62.60
2018-11-06T16:47:43.815Z,58.77
2018-11-06T16:50:13.547Z,58.43
2018-11-06T16:52:42.301Z,51.93
2018-11-06T16:55:11.222Z,50.10
2018-11-06T16:57:40.810Z,50.87
2018-11-06T17:00:11.240Z,62.17
2018-11-06T17:02:40.020Z,59.33
2018-11-06T17:05:09.310Z,55.03
2018-11-06T17:07:37.709Z,60.27
2018-11-06T17:10:07.718Z,77.07
2018-11-06T17:12:36.123Z,68.60
2018-11-06T17:15:04.726Z,67.93
2018-11-06T17:17:33.130Z,64.87
2018-11-06T17:20:01.506Z,61.73
2018-11-06T17:22:29.906Z,59.60
2018-11-06T17:24:58.322Z,66.93
2018-11-06T17:27:26.718Z,84.90
2018-11-06T17:29:55.153Z,65.63
2018-11-06T17:32:23.584Z,72.70
2018-11-06T17:34:51.974Z,71.07
2018-11-06T17:37:20.382Z,70.93
2018-11-06T17:39:48.761Z,62.80
2018-11-06T17:42:17.203Z,71.90
2018-11-06T17:44:45.610Z,70.67
2018-11-06T17:47:14.018Z,64.80
2018-11-06T17:49:42.405Z,68.40
2018-11-06T17:52:10.801Z,62.73
2018-11-06T17:54:39.169Z,65.23
2018-11-06T17:57:07.590Z,88.27
2018-11-06T17:59:36.016Z,75.00
2018-11-06T18:02:04.486Z,73.53
2018-11-06T18:04:33.013Z,74.27
2018-11-06T18:07:01.300Z,75.33
2018-11-06T18:09:29.675Z,77.87
2018-11-06T18:11:58.117Z,75.63
2018-11-06T18:14:26.514Z,60.17
2018-11-06T18:16:54.905Z,68.27
2018-11-06T18:19:23.399Z,71.80
2018-11-06T18:21:51.906Z,72.00
2018-11-06T18:24:20.282Z,74.57
2018-11-06T18:26:49.231Z,74.90
2018-11-06T18:29:17.627Z,74.93
2018-11-06T18:31:46.116Z,77.70
2018-11-06T18:34:14.679Z,72.93
2018-11-06T18:36:43.119Z,87.87
2018-11-06T18:39:13.351Z,73.53
2018-11-06T18:41:41.891Z,71.20
2018-11-06T18:44:10.484Z,78.23
2018-11-06T18:46:38.903Z,68.63
2018-11-06T18:49:07.923Z,74.53
2018-11-06T18:51:36.298Z,72.47
2018-11-06T18:54:04.946Z,77.67
2018-11-06T18:56:33.472Z,78.87
2018-11-06T18:59:01.883Z,102.17
2018-11-06T19:01:30.387Z,83.70
2018-11-06T19:03:58.799Z,78.90
2018-11-06T19:06:27.191Z,73.70
2018-11-06T19:08:55.603Z,89.90
2018-11-06T19:11:23.977Z,94.50
2018-11-06T19:13:52.377Z,92.37
2018-11-06T19:16:20.768Z,63.20
2018-11-06T19:18:49.183Z,77.07
2018-11-06T19:21:18.055Z,90.07
2018-11-06T19:23:46.477Z,77.90
2018-11-06T19:26:14.962Z,78.60
2018-11-06T19:28:43.364Z,75.97
2018-11-06T19:31:11.919Z,89.07
2018-11-06T19:33:40.315Z,88.77
2018-11-06T19:36:08.785Z,95.43
2018-11-06T19:38:37.186Z,95.73
2018-11-06T19:41:06.070Z,83.77
2018-11-06T19:43:34.470Z,79.83
2018-11-06T19:46:02.857Z,98.83
2018-11-06T19:48:31.411Z,88.83
2018-11-06T19:50:59.786Z,85.97
2018-11-06T19:53:28.225Z,78.67
2018-11-06T19:55:56.587Z,71.27
2018-11-06T19:58:24.995Z,84.63
2018-11-06T20:00:53.382Z,73.70
2018-11-06T20:03:21.801Z,84.20
2018-11-06T20:05:50.200Z,83.87
2018-11-06T20:08:18.611Z,81.30
2018-11-06T20:10:47.004Z,92.20
2018-11-06T20:13:15.422Z,79.97
2018-11-06T20:15:43.853Z,92.60
2018-11-06T20:18:12.214Z,87.67
2018-11-06T20:20:40.606Z,82.87
2018-11-06T20:23:09.001Z,90.77
2018-11-06T20:25:37.377Z,80.33
2018-11-06T20:28:05.799Z,86.20
2018-11-06T20:30:34.170Z,84.13
2018-11-06T20:33:02.647Z,82.67
2018-11-06T20:35:31.037Z,94.07
2018-11-06T20:37:59.556Z,70.07
2018-11-06T20:40:28.177Z,89.43
2018-11-06T20:42:56.747Z,84.53
2018-11-06T20:45:25.336Z,75.17
2018-11-06T20:47:53.762Z,96.03
2018-11-06T20:50:23.662Z,80.03
2018-11-06T20:52:52.140Z,110.13
2018-11-06T20:55:20.736Z,103.00
2018-11-06T20:57:49.143Z,100.13
2018-11-06T21:00:30.712Z,95.43
2018-11-06T21:03:00.493Z,96.90
2018-11-06T21:05:28.997Z,91.70
2018-11-06T21:07:57.389Z,110.97
2018-11-06T21:10:27.294Z,108.20
2018-11-06T21:12:55.726Z,105.23
2018-11-06T21:15:24.114Z,101.53
2018-11-06T21:17:52.518Z,94.47
2018-11-06T21:20:20.941Z,113.77
2018-11-06T21:22:49.470Z,84.23
2018-11-06T21:25:18.286Z,86.40
2018-11-06T21:27:46.638Z,78.40
2018-11-06T21:30:17.806Z,87.17
2018-11-06T21:32:47.499Z,115.17
2018-11-06T21:35:15.908Z,81.37
2018-11-06T21:37:44.550Z,95.47
2018-11-06T21:40:15.015Z,94.07
2018-11-06T21:42:43.989Z,92.27
2018-11-06T21:45:13.228Z,96.93
2018-11-06T21:47:42.483Z,89.90
2018-11-06T21:50:12.022Z,94.47
2018-11-06T21:52:40.674Z,93.17
2018-11-06T21:55:10.723Z,73.20
2018-11-06T21:57:39.145Z,89.63
2018-11-06T22:00:09.536Z,62.97
2018-11-06T22:02:38.193Z,64.40
2018-11-06T22:05:07.619Z,67.27
2018-11-06T22:07:35.994Z,60.37
2018-11-06T22:10:05.133Z,71.03
2018-11-06T22:12:33.570Z,60.27
2018-11-06T22:15:02.019Z,73.10
2018-11-06T22:17:30.392Z,52.93
2018-11-06T22:19:58.785Z,63.70
2018-11-06T22:22:27.221Z,60.80
2018-11-06T22:24:55.626Z,53.63
2018-11-06T22:27:24.068Z,32.10
2018-11-06T22:29:52.450Z,37.57
2018-11-06T22:32:20.826Z,46.43
2018-11-06T22:34:49.226Z,38.03
2018-11-06T22:37:17.602Z,40.43
2018-11-06T22:39:46.224Z,38.53
2018-11-06T22:42:14.624Z,42.90
2018-11-06T22:44:43.027Z,50.37
2018-11-06T22:47:11.398Z,46.43
2018-11-06T22:49:39.806Z,45.80
2018-11-06T22:52:08.219Z,46.80
2018-11-06T22:54:36.618Z,36.73
2018-11-06T22:57:05.003Z,40.73
2018-11-06T22:59:33.422Z,37.27
2018-11-06T23:02:01.819Z,41.00
2018-11-06T23:04:30.223Z,37.00
2018-11-06T23:06:58.708Z,36.53
2018-11-06T23:09:26.992Z,44.13
2018-11-06T23:11:55.391Z,39.47
2018-11-06T23:14:23.779Z,39.53
2018-11-06T23:16:52.187Z,37.17
2018-11-06T23:19:20.557Z,33.33
2018-11-06T23:21:48.965Z,33.47
2018-11-06T23:24:17.341Z,33.10
2018-11-06T23:26:45.737Z,36.23
2018-11-06T23:29:14.119Z,31.63
2018-11-06T23:31:42.551Z,34.60
2018-11-06T23:34:10.913Z,34.83
2018-11-06T23:36:39.307Z,33.83
2018-11-06T23:39:08.142Z,28.77
2018-11-06T23:41:36.681Z,28.43
2018-11-06T23:44:05.290Z,28.40
2018-11-06T23:46:33.700Z,34.03
2018-11-06T23:49:02.185Z,32.20
2018-11-06T23:51:30.589Z,25.03
2018-11-06T23:53:58.974Z,27.50
2018-11-06T23:56:27.456Z,29.40
2018-11-06T23:58:55.819Z,32.23
